Latest Weather Observations for Kingaroy

IDQ60801

Issued at 6:32 pm EST Tuesday 25 April 2017 (issued every 30 minutes, with the page automatically refreshed every 10 minutes)

About weather observations | Map of weather stations | Latest weather observations for QLD | Other Formats
Station Details ID: 040922 Name: KINGAROY AIRPORT Lat: -26.57 Lon: 151.84 Height: 433.67 m
Data from the previous 72 hours. | See also: Recent months at Kingaroy
Date/Time
EST
Temp
°C
App
Temp
°C
Dew
Point
°C
Rel
Hum
%
Delta-T
°C
Wind Press
QNH
hPa
Press
MSL
hPa
Rain since
9am
mm
Dir  Spd
km/h
Gust
km/h
Spd
kts
Gust
kts
25/06:30pm 19.0 18.8 11.8 63 4.1 NE 4 7 2 4 1016.4 1014.8 0.0
25/06:00pm 20.0 20.5 11.5 58 4.8 CALM 0 6 0 3 1016.1 1014.6 0.0
25/05:30pm 21.9 20.3 11.6 52 5.9 N 11 13 6 7 1016.2 1014.7 0.0
25/05:00pm 22.7 20.9 10.8 47 6.7 NNW 11 15 6 8 1016.2 1014.7 0.0
25/04:30pm 24.6 23.3 11.2 43 7.7 N 9 15 5 8 1016.2 1014.7 0.0
25/04:00pm 24.9 23.0 11.8 44 7.6 NNW 13 19 7 10 1016.0 1014.5 0.0
25/03:30pm 25.2 23.2 10.3 39 8.4 NNW 11 15 6 8 1015.9 1014.4 0.0
25/03:00pm 25.4 23.5 11.9 43 7.8 N 13 19 7 10 1016.0 1014.5 0.0
25/02:30pm 24.6 23.2 12.2 46 7.2 N 11 17 6 9 1016.2 1014.7 0.0
25/02:00pm 26.2 26.1 13.3 45 7.7 ENE 6 13 3 7 1016.7 1015.1 0.0
25/01:30pm 25.2 23.9 11.4 42 8.0 NNW 9 17 5 9 1017.0 1015.4 0.0
25/01:00pm 24.3 23.0 11.3 44 7.4 WNW 9 15 5 8 1017.4 1015.9 0.0
25/12:30pm 24.5 23.7 12.8 48 6.9 NE 9 13 5 7 1018.0 1016.5 0.0
25/12:00pm 24.2 23.5 13.1 50 6.5 NE 9 15 5 8 1018.8 1017.2 0.0
25/11:30am 23.4 22.6 14.1 56 5.6 NNW 11 17 6 9 1019.3 1017.8 0.0
25/11:00am 22.9 21.8 14.2 58 5.2 N 13 17 7 9 1019.7 1018.2 0.0
25/10:30am 22.0 22.2 14.6 63 4.4 NE 7 15 4 8 1020.2 1018.7 0.0
25/10:00am 21.1 20.8 14.3 65 4.0 E 9 15 5 8 1020.6 1019.1 0.0
25/09:30am 20.4 21.1 16.0 76 2.7 ENE 7 13 4 7 1020.8 1019.3 0.0
25/09:00am 18.3 19.4 16.5 89 1.1 SSW 6 13 3 7 1020.9 1019.4 0.0
25/08:54am 17.9 19.3 17.3 96 0.4 S 6 9 3 5 1020.9 1019.4 0.0
25/08:30am 16.4 18.1 16.2 99 0.1 S 2 6 1 3 1020.8 1019.3 0.0
25/08:26am 16.5 17.9 16.3 99 0.1 S 4 9 2 5 1020.9 1019.4 0.0
25/08:00am 15.1 15.4 14.9 99 0.1 S 7 9 4 5 1020.9 1019.4 0.0
25/07:30am 14.3 15.6 14.1 99 0.1 CALM 0 7 0 4 1020.7 1019.2 0.0
25/07:00am 12.5 12.1 12.3 99 0.1 E 6 7 3 4 1020.4 1018.9 0.0
25/06:30am 12.0 12.5 11.7 98 0.2 CALM 0 0 0 0 1020.4 1018.9 0.0
25/06:00am 11.6 12.0 11.3 98 0.2 CALM 0 0 0 0 1020.0 1018.5 0.0
25/05:30am 11.2 11.1 10.9 98 0.2 NW 2 7 1 4 1019.6 1018.1 0.0
25/05:00am 10.7 10.4 10.2 97 0.3 NNW 2 6 1 3 1019.5 1018.0 0.0
25/04:30am 10.2 9.8 9.7 97 0.3 SE 2 7 1 4 1019.4 1017.9 0.0
25/04:00am 10.6 9.5 10.1 97 0.3 SE 6 7 3 4 1019.5 1018.0 0.0
25/03:47am 9.5 9.2 8.7 95 0.4 CALM 0 0 0 0 1019.5 1018.0 0.0
25/03:44am 9.5 9.2 8.7 95 0.4 CALM 0 0 0 0 1019.5 1018.0 0.0
25/03:30am 9.5 9.2 8.7 95 0.4 CALM 0 0 0 0 1019.5 1018.0 0.0
25/03:20am 9.1 8.7 8.3 95 0.4 CALM 0 0 0 0 1019.5 1018.0 0.0
25/03:02am 9.3 8.9 8.4 94 0.4 CALM 0 0 0 0 1019.7 1018.2 0.0
25/03:00am 9.2 8.8 8.3 94 0.4 CALM 0 0 0 0 1019.7 1018.2 0.0
25/02:30am 10.2 9.0 9.4 95 0.4 SE 6 7 3 4 1019.9 1018.4 0.0
25/02:00am 10.3 10.2 9.4 94 0.5 CALM 0 0 0 0 1019.8 1018.3 0.0
25/01:30am 9.9 9.6 8.8 93 0.6 CALM 0 0 0 0 1020.1 1018.6 0.0
25/01:00am 10.4 9.1 9.3 93 0.6 SSE 6 7 3 4 1020.5 1019.0 0.0
25/12:30am 10.9 10.1 9.8 93 0.6 S 4 7 2 4 1020.6 1019.1 0.0
25/12:00am 11.6 10.6 10.2 91 0.7 ESE 6 7 3 4 1021.0 1019.5 0.0
 
Date/Time
EST
Temp
°C
App
Temp
°C
Dew
Point
°C
Rel
Hum
%
Delta-T
°C
Wind Press
QNH
hPa
Press
MSL
hPa
Rain since
9am
mm
Dir  Spd
km/h
Gust
km/h
Spd
kts
Gust
kts
24/11:30pm 12.3 12.6 10.9 91 0.7 CALM 0 0 0 0 1021.5 1020.0 0.0
24/11:00pm 12.6 12.9 10.8 89 1.0 CALM 0 0 0 0 1021.6 1020.1 0.0
24/10:30pm 13.7 13.8 11.6 87 1.1 S 2 6 1 3 1021.7 1020.2 0.0
24/10:00pm 14.1 14.2 11.4 84 1.5 SSE 2 6 1 3 1021.7 1020.2 0.0
24/09:30pm 14.2 13.4 11.7 85 1.4 SSE 7 7 4 4 1021.6 1020.1 0.0
24/09:00pm 15.0 15.3 12.3 84 1.5 SSE 2 9 1 5 1021.5 1020.0 0.0
24/08:30pm 15.4 15.3 12.0 80 1.9 E 4 7 2 4 1021.4 1019.9 0.0
24/08:00pm 16.3 15.8 12.5 78 2.1 ESE 7 11 4 6 1021.4 1019.9 0.0
24/07:30pm 17.4 16.2 12.7 74 2.7 E 11 13 6 7 1021.0 1019.5 0.0
24/07:00pm 17.8 16.4 12.3 70 3.1 E 11 13 6 7 1020.7 1019.2 0.0
24/06:30pm 18.0 16.9 12.0 68 3.4 E 9 11 5 6 1020.5 1019.0 0.0
24/06:00pm 18.5 16.9 10.3 59 4.5 E 9 11 5 6 1020.3 1018.8 0.0
24/05:30pm 20.6 19.3 10.1 51 5.8 SE 7 9 4 5 1019.8 1018.3 0.0
24/05:00pm 22.1 20.0 9.6 45 6.9 ESE 11 15 6 8 1019.5 1018.0 0.0
24/04:30pm 22.9 20.1 8.6 40 7.8 ESE 13 19 7 10 1019.3 1017.8 0.0
24/04:00pm 23.3 20.4 8.2 38 8.1 SE 13 19 7 10 1019.2 1017.7 0.0
24/03:30pm 23.7 20.8 8.2 37 8.4 ESE 13 19 7 10 1019.2 1017.7 0.0
24/03:00pm 24.1 21.1 7.7 35 8.8 E 13 20 7 11 1019.3 1017.8 0.0
24/02:30pm 24.5 22.2 10.4 41 8.0 SSE 13 20 7 11 1019.4 1017.9 0.0
24/02:00pm 23.8 22.1 11.2 45 7.2 SE 11 19 6 10 1019.6 1018.1 0.0
24/01:30pm 23.6 22.0 11.6 47 6.9 SE 11 24 6 13 1019.9 1018.4 0.0
24/01:00pm 23.9 21.9 11.6 46 7.1 SSE 13 22 7 12 1020.2 1018.7 0.0
24/12:30pm 23.0 21.6 12.3 51 6.2 SSE 11 17 6 9 1020.8 1019.3 0.0
24/12:00pm 22.6 21.7 12.5 53 5.8 ENE 9 17 5 9 1021.3 1019.8 0.0
24/11:30am 22.0 20.9 13.1 57 5.2 E 11 17 6 9 1021.7 1020.2 0.0
24/11:00am 21.2 20.2 14.6 66 3.9 ESE 13 20 7 11 1022.2 1020.7 0.0
24/10:30am 21.1 19.8 14.7 67 3.8 E 15 22 8 12 1022.6 1021.1 0.0
24/10:00am 20.1 18.6 14.2 69 3.5 ESE 15 22 8 12 1022.9 1021.4 0.0
24/09:38am 19.6 18.7 14.8 74 2.9 ESE 13 19 7 10 1023.2 1021.8 0.0
24/09:30am 19.2 18.7 14.9 76 2.6 SE 11 17 6 9 1023.2 1021.8 0.0
24/09:00am 18.4 17.8 14.7 79 2.2 ESE 11 15 6 8 1023.1 1021.6 0.0
24/08:30am 17.5 17.0 14.8 84 1.6 ESE 11 17 6 9 1023.0 1021.5 0.0
24/08:00am 16.6 16.1 14.8 89 1.1 ESE 11 20 6 11 1022.9 1021.4 0.0
24/07:41am 16.7 16.5 14.7 88 1.2 SSE 9 15 5 8 1022.7 1021.2 0.0
24/07:30am 16.7 17.0 14.5 87 1.3 S 6 9 3 5 1022.5 1021.0 0.0
24/07:29am 16.8 17.1 14.6 87 1.3 S 6 9 3 5 1022.5 1021.0 0.0
24/07:00am 15.9 17.5 14.8 93 0.6 CALM 0 4 0 2 1022.3 1020.8 0.0
24/06:30am 15.5 15.2 14.5 94 0.6 SE 9 15 5 8 1022.2 1020.7 0.0
24/06:00am 15.5 15.8 14.9 96 0.4 ESE 7 13 4 7 1021.8 1020.3 0.0
24/05:30am 15.3 15.1 14.8 97 0.3 ESE 9 15 5 8 1021.6 1020.1 0.0
24/05:00am 15.3 15.5 14.8 97 0.3 ESE 7 13 4 7 1021.4 1019.9 0.0
24/04:30am 15.2 15.1 14.9 98 0.2 SE 9 15 5 8 1020.9 1019.4 0.0
24/04:00am 15.4 15.7 15.1 98 0.2 ESE 7 13 4 7 1021.0 1019.5 0.0
24/03:46am 15.3 15.6 15.0 98 0.2 ESE 7 11 4 6 1020.9 1019.4 0.0
24/03:30am 15.2 14.7 14.9 98 0.2 SSE 11 15 6 8 1020.8 1019.3 0.0
24/03:10am 14.3 13.8 13.8 97 0.3 SSE 9 11 5 6 1020.8 1019.3 0.0
24/03:00am 13.8 13.5 13.3 97 0.3 S 7 9 4 5 1021.3 1019.8 0.0
24/02:38am 13.1 12.1 12.3 95 0.4 S 9 13 5 7 1021.5 1020.0 0.0
24/02:30am 12.8 12.7 12.0 95 0.4 S 4 9 2 5 1021.5 1020.0 0.0
24/02:00am 12.9 12.4 12.0 94 0.5 ESE 6 9 3 5 1021.8 1020.3 0.0
24/01:30am 12.9 12.3 11.6 92 0.7 WNW 6 7 3 4 1022.0 1020.5 0.0
24/01:00am 14.1 13.3 13.0 93 0.6 SSE 9 13 5 7 1022.3 1020.8 0.0
24/12:30am 13.8 13.2 12.2 90 0.9 SW 7 9 4 5 1022.7 1021.2 0.0
24/12:00am 14.9 15.1 12.9 88 1.1 SSW 4 9 2 5 1022.7 1021.2 0.0
 
Date/Time
EST
Temp
°C
App
Temp
°C
Dew
Point
°C
Rel
Hum
%
Delta-T
°C
Wind Press
QNH
hPa
Press
MSL
hPa
Rain since
9am
mm
Dir  Spd
km/h
Gust
km/h
Spd
kts
Gust
kts
23/11:30pm 15.5 15.5 13.5 88 1.1 SE 6 9 3 5 1022.8 1021.3 0.0
23/11:00pm 15.4 16.0 13.2 87 1.2 S 2 6 1 3 1023.5 1022.1 0.0
23/10:30pm 15.4 15.3 13.2 87 1.2 S 6 9 3 5 1023.1 1021.6 0.0
23/10:00pm 16.4 17.7 14.1 86 1.3 CALM 0 0 0 0 1023.2 1021.8 0.0
23/09:30pm 16.6 16.6 13.7 83 1.7 ESE 6 7 3 4 1023.2 1021.8 0.0
23/09:00pm 16.6 17.5 12.9 79 2.1 CALM 0 0 0 0 1023.4 1022.0 0.0
23/08:30pm 17.3 18.2 13.0 76 2.5 CALM 0 0 0 0 1023.3 1021.9 0.0
23/08:00pm 18.2 18.5 13.3 73 2.8 E 4 7 2 4 1022.7 1021.2 0.0
23/07:30pm 18.5 18.2 13.4 72 3.0 ESE 7 9 4 5 1022.5 1021.0 0.0
23/07:00pm 18.0 17.1 12.5 70 3.1 E 9 11 5 6 1022.1 1020.6 0.0
23/06:30pm 18.6 17.7 12.6 68 3.4 ESE 9 15 5 8 1021.7 1020.2 0.0
23/06:00pm 19.4 18.4 12.4 64 4.0 ESE 9 11 5 6 1021.4 1019.9 0.0
23/05:30pm 20.7 19.8 12.7 60 4.6 ESE 9 11 5 6 1020.9 1019.4 0.0
23/05:00pm 22.2 20.5 12.5 54 5.6 ESE 13 19 7 10 1020.7 1019.2 0.0
23/04:30pm 23.1 21.5 12.7 52 6.1 SE 13 19 7 10 1020.7 1019.2 0.0
23/04:00pm 23.7 22.4 12.4 49 6.6 ESE 11 17 6 9 1020.4 1018.9 0.0
23/03:30pm 24.1 22.8 12.4 48 6.8 SE 11 17 6 9 1020.3 1018.8 0.0
23/03:00pm 24.5 23.4 13.1 49 6.7 S 11 17 6 9 1020.2 1018.7 0.0
23/02:30pm 23.2 21.4 12.2 50 6.4 SE 13 19 7 10 1020.5 1019.0 0.0
23/02:00pm 24.1 22.5 12.7 49 6.7 ESE 13 20 7 11 1020.5 1019.0 0.0
23/01:30pm 23.5 22.5 12.2 49 6.6 E 9 15 5 8 1020.8 1019.3 0.0
23/01:00pm 23.9 22.6 13.7 53 6.1 ESE 13 19 7 10 1021.3 1019.8 0.0
23/12:30pm 22.9 22.0 13.7 56 5.5 ESE 11 19 6 10 1021.8 1020.3 0.0
23/12:00pm 22.9 22.3 14.5 59 5.0 E 11 20 6 11 1022.2 1020.7 0.0
23/11:30am 22.5 21.0 14.1 59 5.0 ESE 15 26 8 14 1022.6 1021.1 0.0
23/11:00am 22.5 20.9 15.1 63 4.5 ESE 17 24 9 13 1023.1 1021.6 0.0
23/10:30am 21.4 20.0 14.6 65 4.1 ESE 15 20 8 11 1023.5 1022.1 0.0
23/10:00am 20.5 18.6 14.2 67 3.7 ESE 17 24 9 13 1024.0 1022.5 0.0
23/09:30am 19.4 17.6 13.3 68 3.5 ESE 15 26 8 14 1024.2 1022.7 0.0
23/09:00am 18.8 16.6 13.4 71 3.1 ESE 17 28 9 15 1024.1 1022.6 0.0
23/08:30am 17.6 16.0 12.9 74 2.7 ESE 13 20 7 11 1024.0 1022.5 0.0
23/08:00am 15.5 16.0 14.0 91 0.9 SW 4 11 2 6 1024.0 1022.5 0.0
23/07:30am 12.5 13.2 12.2 98 0.2 CALM 0 0 0 0 1023.8 1022.3 0.0
23/07:00am 9.7 9.2 9.2 97 0.3 E 2 6 1 3 1023.5 1022.1 0.0
23/06:39am 9.1 8.4 8.5 96 0.3 ENE 2 6 1 3 1023.5 1022.1 0.0
23/06:30am 8.4 7.8 7.6 95 0.4 CALM 0 0 0 0 1023.5 1022.1 0.0
23/06:20am 8.5 7.9 7.6 94 0.4 CALM 0 0 0 0 1023.4 1022.0 0.0
23/06:00am 8.7 8.2 7.9 95 0.4 CALM 0 0 0 0 1023.4 1022.0 0.0
23/05:30am 9.0 8.5 7.9 93 0.5 CALM 0 0 0 0 1022.9 1021.4 0.0
23/05:00am 9.4 9.0 8.3 93 0.5 CALM 0 0 0 0 1022.6 1021.1 0.0
23/04:30am 10.1 9.9 8.9 92 0.6 CALM 0 0 0 0 1022.5 1021.0 0.0
23/04:00am 10.8 10.7 9.4 91 0.7 CALM 0 4 0 2 1022.5 1021.0 0.0
23/03:30am 11.3 10.2 9.9 91 0.7 SSE 6 9 3 5 1022.4 1020.9 0.0
23/03:00am 11.6 9.6 10.0 90 0.8 SSW 11 13 6 7 1022.4 1020.9 0.0
23/02:30am 12.8 12.0 11.0 89 1.0 S 6 7 3 4 1022.6 1021.1 0.0
23/02:00am 13.8 13.0 11.7 87 1.1 ESE 7 15 4 8 1022.7 1021.2 0.0
23/01:30am 13.1 12.3 11.7 91 0.8 ESE 7 11 4 6 1022.8 1021.3 0.0
23/01:00am 12.7 11.9 11.1 90 0.9 SE 6 7 3 4 1023.2 1021.8 0.0
23/12:30am 12.8 11.8 11.0 89 1.0 S 7 9 4 5 1023.5 1022.1 0.0
23/12:00am 13.6 12.5 10.8 83 1.5 S 7 9 4 5 1023.9 1022.4 0.0
 
Date/Time
EST
Temp
°C
App
Temp
°C
Dew
Point
°C
Rel
Hum
%
Delta-T
°C
Wind Press
QNH
hPa
Press
MSL
hPa
Rain since
9am
mm
Dir  Spd
km/h
Gust
km/h
Spd
kts
Gust
kts
22/11:30pm 14.8 13.4 12.3 85 1.4 E 11 17 6 9 1024.1 1022.6 0.0
22/11:00pm 15.2 13.5 12.5 84 1.5 SE 13 17 7 9 1024.3 1022.8 0.0
22/10:30pm 14.5 13.7 11.1 80 1.8 ESE 6 7 3 4 1024.7 1023.2 0.0
22/10:22pm 15.1 14.8 11.5 79 2.0 SE 4 11 2 6 1024.8 1023.3 0.0
22/10:00pm 15.5 14.8 11.9 79 2.0 SE 7 11 4 6 1025.0 1023.5 0.0
22/09:50pm 15.3 14.5 11.7 79 2.0 SE 7 15 4 8 1025.0 1023.5 0.0
22/09:30pm 14.9 13.9 11.1 78 2.1 ESE 7 9 4 5 1025.0 1023.5 0.0
22/09:00pm 15.9 15.0 11.5 75 2.4 ESE 7 11 4 6 1025.0 1023.5 0.0
22/08:30pm 16.2 14.2 11.6 74 2.5 ESE 13 17 7 9 1024.8 1023.3 0.0
22/08:00pm 16.3 14.4 11.7 74 2.5 ESE 13 19 7 10 1024.6 1023.1 0.0
22/07:30pm 16.4 15.6 11.8 74 2.6 ESE 7 13 4 7 1024.4 1022.9 0.0
22/07:00pm 17.4 15.6 12.1 71 3.0 ESE 13 19 7 10 1024.1 1022.6 0.0

Other Formats:

Comma delimited format used in spreadsheet applications
http://www.bom.gov.au/fwo/IDQ60801/IDQ60801.94549.axf

JavaScript Object Notation format (JSON) in row-major order
http://www.bom.gov.au/fwo/IDQ60801/IDQ60801.94549.json